M C B H Kaneohe Bay, Hawaii
Current Conditions -  °F | °C
As of 9:57 AM on Wednesday 26 Nov 2014 (Local Time) from PHNG Reporting Station
Scattered Clouds Scattered Clouds  
Wind Chill: 79°   Ceiling: Unl
Heat Index: 80°   Visibility: 10mi
Dew Point: 61°   Wind: 9mph
Humidity: 54%   Direction: 50°NE
Pressure: 30.12"   Gusts: NA
Location:  21.4527°N, 157.772°W
Report Text: PHNG 261957Z 05008KT 10SM SCT050 26/16 A3012 RMK AO2 SLP194 T02610161 $
Loading
Personal Weather Stations






























Interactive Weather Map New forecast layout! Learn more

10-Day Weather Forecast

Advertisements
Track Severe Weather on mobile